createdAt,value
2022-12-05T00:02:23.581Z,25.88
2022-12-05T00:04:50.267Z,25.88
2022-12-05T00:07:16.821Z,24.35
2022-12-05T00:09:43.435Z,26.35
2022-12-05T00:17:35.161Z,24.95
2022-12-05T00:20:02.450Z,25.55
2022-12-05T00:22:29.412Z,25.08
2022-12-05T00:24:55.947Z,25.23
2022-12-05T00:27:22.617Z,23.25
2022-12-05T00:29:49.183Z,24.90
2022-12-05T00:32:15.841Z,24.88
2022-12-05T00:34:42.401Z,27.83
2022-12-05T00:37:08.980Z,24.80
2022-12-05T00:39:35.615Z,24.77
2022-12-05T00:47:22.128Z,19.70
2022-12-05T00:49:48.707Z,25.27
2022-12-05T00:52:15.534Z,23.25
2022-12-05T00:54:42.105Z,26.23
2022-12-05T00:57:08.679Z,25.35
2022-12-05T00:59:35.243Z,24.02
2022-12-05T01:02:01.897Z,25.85
2022-12-05T01:04:28.563Z,24.20
2022-12-05T01:06:56.922Z,27.15
2022-12-05T01:09:24.083Z,27.52
2022-12-05T01:11:59.653Z,25.13
2022-12-05T01:14:26.624Z,27.70
2022-12-05T01:16:54.749Z,24.70
2022-12-05T01:19:26.635Z,27.73
2022-12-05T01:21:53.544Z,28.92
2022-12-05T01:24:21.334Z,29.67
2022-12-05T01:27:04.038Z,28.48
2022-12-05T01:29:30.603Z,27.13
2022-12-05T01:31:57.258Z,28.13
2022-12-05T01:34:24.021Z,26.95
2022-12-05T01:36:50.674Z,26.80
2022-12-05T01:39:17.329Z,26.92
2022-12-05T01:44:27.830Z,27.58
2022-12-05T01:46:55.139Z,25.23
2022-12-05T01:49:30.527Z,26.90
2022-12-05T01:52:01.438Z,25.13
2022-12-05T01:54:28.614Z,24.67
2022-12-05T01:59:29.913Z,25.63
2022-12-05T02:01:56.592Z,24.98
2022-12-05T02:04:23.308Z,24.45
2022-12-05T02:06:49.917Z,22.75
2022-12-05T02:09:16.489Z,25.98
2022-12-05T02:14:32.725Z,24.38
2022-12-05T02:17:20.999Z,24.33
2022-12-05T02:19:53.308Z,21.77
2022-12-05T02:22:53.412Z,22.17
2022-12-05T02:25:25.108Z,24.55
2022-12-05T02:28:10.028Z,21.35
2022-12-05T02:30:43.654Z,21.95
2022-12-05T02:33:21.916Z,20.75
2022-12-05T02:35:54.979Z,19.88
2022-12-05T02:46:38.285Z,22.08
2022-12-05T02:49:09.061Z,22.58
2022-12-05T02:54:12.730Z,20.30
2022-12-05T03:08:18.993Z,21.35
2022-12-05T03:10:46.155Z,21.00
2022-12-05T03:13:25.548Z,20.85
2022-12-05T03:15:55.477Z,21.30
2022-12-05T03:18:28.435Z,19.70
2022-12-05T03:21:14.695Z,20.25
2022-12-05T03:26:17.812Z,21.67
2022-12-05T03:29:10.858Z,21.20
2022-12-05T03:31:58.524Z,19.52
2022-12-05T03:34:55.871Z,19.52
2022-12-05T03:37:47.982Z,19.60
2022-12-05T03:40:36.927Z,21.33
2022-12-05T03:43:10.741Z,19.20
2022-12-05T03:46:23.442Z,20.13
2022-12-05T03:49:03.730Z,20.20
2022-12-05T03:51:34.995Z,20.23
2022-12-05T03:54:24.940Z,21.10
2022-12-05T03:57:06.069Z,22.43
2022-12-05T03:59:37.004Z,21.48
2022-12-05T04:02:09.879Z,21.02
2022-12-05T04:07:07.780Z,21.75
2022-12-05T04:09:52.286Z,23.58
2022-12-05T04:12:23.535Z,21.40
2022-12-05T04:15:06.346Z,20.45
2022-12-05T04:17:53.428Z,20.97
2022-12-05T04:28:47.923Z,21.38
2022-12-05T04:31:26.477Z,20.80
2022-12-05T04:34:06.845Z,22.15
2022-12-05T04:36:50.416Z,21.75
2022-12-05T04:39:25.018Z,22.45
2022-12-05T04:42:01.915Z,21.73
2022-12-05T04:44:34.308Z,20.40
2022-12-05T04:50:23.860Z,20.63
2022-12-05T04:52:53.516Z,21.48
2022-12-05T04:55:25.949Z,22.45
2022-12-05T04:58:16.216Z,19.95
2022-12-05T05:01:03.985Z,19.90
2022-12-05T05:03:35.370Z,22.02
2022-12-05T05:06:02.725Z,19.58
2022-12-05T05:08:29.955Z,21.83
2022-12-05T05:13:42.720Z,20.42
2022-12-05T05:16:18.282Z,22.35
2022-12-05T05:18:49.489Z,21.35
2022-12-05T05:21:23.724Z,21.05
2022-12-05T05:23:50.550Z,22.30
2022-12-05T05:26:18.435Z,19.20
2022-12-05T05:28:45.626Z,21.35
2022-12-05T05:31:12.862Z,20.60
2022-12-05T05:33:39.508Z,19.73
2022-12-05T05:36:08.131Z,21.13
2022-12-05T05:38:47.321Z,20.48
2022-12-05T05:43:44.940Z,22.40
2022-12-05T05:46:12.866Z,20.65
2022-12-05T05:48:39.863Z,20.60
2022-12-05T05:51:07.962Z,22.05
2022-12-05T05:53:34.595Z,20.88
2022-12-05T05:56:09.786Z,19.92
2022-12-05T05:58:36.899Z,20.20
2022-12-05T06:01:08.078Z,24.00
2022-12-05T06:03:35.351Z,21.60
2022-12-05T06:06:04.790Z,19.95
2022-12-05T06:08:33.084Z,22.27
2022-12-05T06:11:06.845Z,21.83
2022-12-05T06:13:33.528Z,21.75
2022-12-05T06:16:00.279Z,22.55
2022-12-05T06:18:26.978Z,21.92
2022-12-05T06:20:58.020Z,21.65
2022-12-05T06:23:25.687Z,22.73
2022-12-05T06:28:33.055Z,20.80
2022-12-05T06:30:59.708Z,20.98
2022-12-05T06:33:26.307Z,18.85
2022-12-05T06:36:14.387Z,18.25
2022-12-05T06:38:42.474Z,18.45
2022-12-05T06:41:12.263Z,19.65
2022-12-05T06:51:43.312Z,19.58
2022-12-05T06:54:12.397Z,20.88
2022-12-05T06:56:39.062Z,19.65
2022-12-05T06:59:05.982Z,20.90
2022-12-05T07:09:51.579Z,17.52
2022-12-05T07:12:19.229Z,15.82
2022-12-05T07:14:48.188Z,17.20
2022-12-05T07:17:15.972Z,18.73
2022-12-05T07:19:42.590Z,17.75
2022-12-05T07:22:15.191Z,18.45
2022-12-05T07:24:42.746Z,18.70
2022-12-05T07:27:09.457Z,15.63
2022-12-05T07:29:36.099Z,15.10
2022-12-05T07:32:03.094Z,15.63
2022-12-05T07:39:58.975Z,15.23
2022-12-05T07:42:25.776Z,15.32
2022-12-05T07:44:52.320Z,17.30
2022-12-05T07:47:18.989Z,15.77
2022-12-05T07:49:45.750Z,16.55
2022-12-05T07:52:12.326Z,16.13
2022-12-05T07:54:38.892Z,16.35
2022-12-05T07:57:05.695Z,17.60
2022-12-05T07:59:34.458Z,16.73
2022-12-05T08:02:01.220Z,18.48
2022-12-05T08:04:28.149Z,18.05
2022-12-05T08:06:54.828Z,16.42
2022-12-05T08:09:21.385Z,16.30
2022-12-05T08:11:52.406Z,15.90
2022-12-05T08:14:19.529Z,13.88
2022-12-05T08:16:46.351Z,15.05
2022-12-05T08:19:13.505Z,12.82
2022-12-05T08:21:40.570Z,15.85
2022-12-05T08:24:07.795Z,13.70
2022-12-05T08:26:35.745Z,14.18
2022-12-05T08:29:08.171Z,15.35
2022-12-05T08:31:40.711Z,14.13
2022-12-05T08:34:07.492Z,14.57
2022-12-05T08:36:34.120Z,13.23
2022-12-05T08:39:03.907Z,14.02
2022-12-05T08:41:31.033Z,13.33
2022-12-05T08:43:59.599Z,13.98
2022-12-05T08:46:32.793Z,13.50
2022-12-05T08:49:00.861Z,14.25
2022-12-05T08:51:27.552Z,13.95
2022-12-05T08:53:56.193Z,16.98
2022-12-05T08:56:26.815Z,15.63
2022-12-05T08:58:58.470Z,16.75
2022-12-05T09:01:31.930Z,16.05
2022-12-05T09:04:04.520Z,15.52
2022-12-05T09:06:31.913Z,15.07
2022-12-05T09:09:00.869Z,17.63
2022-12-05T09:11:30.487Z,16.95
2022-12-05T09:13:58.308Z,16.52
2022-12-05T09:16:37.591Z,16.73
2022-12-05T09:19:25.677Z,13.38
2022-12-05T09:21:52.331Z,16.00
2022-12-05T09:24:18.964Z,15.57
2022-12-05T09:26:46.125Z,14.20
2022-12-05T09:29:17.738Z,14.40
2022-12-05T09:31:46.788Z,16.33
2022-12-05T09:34:19.944Z,13.77
2022-12-05T09:36:55.819Z,14.70
2022-12-05T09:39:25.106Z,12.93
2022-12-05T09:42:46.963Z,12.07
2022-12-05T09:45:48.533Z,12.75
2022-12-05T09:48:16.720Z,13.50
2022-12-05T09:51:11.033Z,12.50
2022-12-05T09:53:39.943Z,11.23
2022-12-05T09:56:09.632Z,12.45
2022-12-05T09:58:40.869Z,12.27
2022-12-05T10:01:31.373Z,12.88
2022-12-05T10:04:22.985Z,11.05
2022-12-05T10:07:27.143Z,12.13
2022-12-05T10:10:17.061Z,11.98
2022-12-05T10:13:00.117Z,11.65
2022-12-05T10:15:31.171Z,13.55
2022-12-05T10:18:01.584Z,12.57
2022-12-05T10:20:38.038Z,13.07
2022-12-05T10:23:23.147Z,11.80
2022-12-05T10:26:00.298Z,12.20
2022-12-05T10:28:45.446Z,12.00
2022-12-05T10:31:14.668Z,12.80
2022-12-05T10:33:44.971Z,13.30
2022-12-05T10:36:13.960Z,12.80
2022-12-05T10:38:42.575Z,11.80
2022-12-05T10:41:11.896Z,10.55
2022-12-05T10:43:41.262Z,10.50
2022-12-05T10:46:10.657Z,10.82
2022-12-05T10:48:41.733Z,10.55
2022-12-05T10:51:13.469Z,10.02
2022-12-05T10:53:45.326Z,10.70
2022-12-05T10:56:37.740Z,10.73
2022-12-05T10:59:05.347Z,10.35
2022-12-05T11:01:32.666Z,11.00
2022-12-05T11:04:02.077Z,9.70
2022-12-05T11:06:31.207Z,10.68
2022-12-05T11:09:05.475Z,9.73
2022-12-05T11:11:33.608Z,9.10
2022-12-05T11:14:03.115Z,8.57
2022-12-05T11:16:33.443Z,8.60
2022-12-05T11:19:21.957Z,9.10
2022-12-05T11:21:55.077Z,8.68
2022-12-05T11:24:30.772Z,8.80
2022-12-05T11:27:15.770Z,7.82
2022-12-05T11:29:44.201Z,7.97
2022-12-05T11:32:22.759Z,7.88
2022-12-05T11:35:08.327Z,7.07
2022-12-05T11:37:40.915Z,7.88
2022-12-05T11:40:36.491Z,8.35
2022-12-05T11:43:29.100Z,7.90
2022-12-05T11:46:04.755Z,7.63
2022-12-05T11:48:31.416Z,9.35
2022-12-05T11:51:09.989Z,7.55
2022-12-05T11:53:42.640Z,7.72
2022-12-05T11:56:33.658Z,7.53
2022-12-05T11:59:34.890Z,7.70
2022-12-05T12:02:12.690Z,8.00
2022-12-05T12:05:16.975Z,9.05
2022-12-05T12:08:01.926Z,7.80
2022-12-05T12:11:02.829Z,8.35
2022-12-05T12:14:01.501Z,8.50
2022-12-05T12:16:58.563Z,8.63
2022-12-05T12:19:37.207Z,9.68
2022-12-05T12:22:15.768Z,7.60
2022-12-05T12:25:08.326Z,8.98
2022-12-05T12:27:45.682Z,8.65
2022-12-05T12:30:15.458Z,8.63
2022-12-05T12:33:11.141Z,10.10
2022-12-05T12:36:06.669Z,9.45
2022-12-05T12:38:39.353Z,10.63
2022-12-05T12:41:20.788Z,10.23
2022-12-05T12:44:15.144Z,11.30
2022-12-05T12:46:44.207Z,12.27
2022-12-05T12:49:32.692Z,12.95
2022-12-05T12:52:02.908Z,12.55
2022-12-05T12:55:05.558Z,12.45
2022-12-05T12:57:51.085Z,11.02
2022-12-05T13:00:23.909Z,12.10
2022-12-05T13:03:17.730Z,11.13
2022-12-05T13:05:58.082Z,11.32
2022-12-05T13:11:04.124Z,12.07
2022-12-05T13:13:37.181Z,12.98
2022-12-05T13:16:07.631Z,12.55
2022-12-05T13:18:35.132Z,12.25
2022-12-05T13:21:05.782Z,11.35
2022-12-05T13:23:36.144Z,12.65
2022-12-05T13:26:08.895Z,12.18
2022-12-05T13:28:44.622Z,11.02
2022-12-05T13:31:14.085Z,11.90
2022-12-05T13:33:49.351Z,10.93
2022-12-05T13:36:38.409Z,11.02
2022-12-05T13:39:31.932Z,11.00
2022-12-05T13:42:18.017Z,12.70
2022-12-05T13:44:53.887Z,10.75
2022-12-05T13:47:28.483Z,12.27
2022-12-05T13:50:09.439Z,9.68
2022-12-05T13:52:49.176Z,10.82
2022-12-05T13:55:35.365Z,9.37
2022-12-05T13:58:22.594Z,11.10
2022-12-05T14:00:52.786Z,11.60
2022-12-05T14:03:22.112Z,10.10
2022-12-05T14:05:57.492Z,9.52
2022-12-05T14:08:35.881Z,9.80
2022-12-05T14:11:05.629Z,10.10
2022-12-05T14:13:33.496Z,11.27
2022-12-05T14:16:26.130Z,13.02
2022-12-05T14:19:02.420Z,11.30
2022-12-05T14:21:45.137Z,11.70
2022-12-05T14:24:35.949Z,12.30
2022-12-05T14:29:55.670Z,11.05
2022-12-05T14:32:25.631Z,12.93
2022-12-05T14:35:01.463Z,13.20
2022-12-05T14:37:34.647Z,12.80
2022-12-05T14:40:03.768Z,14.18
2022-12-05T14:42:41.914Z,13.52
2022-12-05T14:45:39.387Z,15.35
2022-12-05T14:48:15.078Z,13.30
2022-12-05T14:50:46.748Z,14.23
2022-12-05T14:53:27.174Z,13.98
2022-12-05T14:56:20.793Z,14.23
2022-12-05T14:58:58.963Z,14.23
2022-12-05T15:01:55.506Z,16.25
2022-12-05T15:04:30.890Z,15.95
2022-12-05T15:07:03.016Z,14.90
2022-12-05T15:09:37.441Z,16.33
2022-12-05T15:12:10.525Z,16.17
2022-12-05T15:14:45.552Z,15.27
2022-12-05T15:17:17.178Z,16.42
2022-12-05T15:19:56.118Z,15.80
2022-12-05T15:22:25.426Z,18.02
2022-12-05T15:24:52.075Z,18.65
2022-12-05T15:27:18.826Z,18.70
2022-12-05T15:29:45.493Z,17.45
2022-12-05T15:32:12.090Z,19.52
2022-12-05T15:34:47.118Z,19.02
2022-12-05T15:37:31.166Z,18.60
2022-12-05T15:40:14.222Z,17.88
2022-12-05T15:42:40.854Z,18.98
2022-12-05T15:45:13.459Z,19.83
2022-12-05T15:47:44.089Z,21.55
2022-12-05T15:50:14.954Z,20.77
2022-12-05T15:52:51.370Z,18.77
2022-12-05T15:55:24.095Z,20.15
2022-12-05T15:57:55.097Z,18.65
2022-12-05T16:00:25.886Z,20.45
2022-12-05T16:05:22.575Z,19.67
2022-12-05T16:07:50.144Z,18.02
2022-12-05T16:10:17.728Z,18.23
2022-12-05T16:12:44.397Z,18.55
2022-12-05T16:15:25.200Z,17.50
2022-12-05T16:20:24.027Z,18.98
2022-12-05T16:22:54.209Z,19.23
2022-12-05T16:25:27.400Z,19.70
2022-12-05T16:28:20.986Z,18.23
2022-12-05T16:31:14.652Z,20.05
2022-12-05T16:33:43.706Z,19.45
2022-12-05T16:36:12.373Z,18.83
2022-12-05T16:38:44.949Z,21.33
2022-12-05T16:41:12.638Z,18.15
2022-12-05T16:43:39.257Z,20.85
2022-12-05T16:46:12.889Z,20.40
2022-12-05T16:48:40.702Z,21.00
2022-12-05T16:51:13.499Z,20.23
2022-12-05T16:53:41.995Z,19.85
2022-12-05T16:56:13.843Z,20.45
2022-12-05T16:58:40.482Z,22.95
2022-12-05T17:01:07.825Z,19.00
2022-12-05T17:03:35.866Z,22.00
2022-12-05T17:06:03.100Z,20.02
2022-12-05T17:08:29.847Z,22.10
2022-12-05T17:10:56.597Z,22.35
2022-12-05T17:13:23.328Z,21.27
2022-12-05T17:15:50.184Z,20.77
2022-12-05T17:18:20.417Z,22.42
2022-12-05T17:20:54.868Z,21.88
2022-12-05T17:23:21.600Z,21.15
2022-12-05T17:25:53.449Z,22.15
2022-12-05T17:28:20.552Z,23.17
2022-12-05T17:30:47.231Z,23.13
2022-12-05T17:33:15.947Z,23.85
2022-12-05T17:35:42.634Z,22.23
2022-12-05T17:38:10.678Z,24.42
2022-12-05T17:40:38.445Z,22.50
2022-12-05T17:43:05.756Z,23.35
2022-12-05T17:45:33.342Z,22.45
2022-12-05T17:48:00.132Z,24.25
2022-12-05T17:50:27.284Z,24.52
2022-12-05T17:52:56.026Z,25.52
2022-12-05T17:55:28.319Z,23.13
2022-12-05T17:57:55.350Z,22.85
2022-12-05T18:00:23.315Z,21.52
2022-12-05T18:02:50.556Z,23.40
2022-12-05T18:05:17.536Z,21.45
2022-12-05T18:07:45.252Z,22.40
2022-12-05T18:10:16.377Z,23.45
2022-12-05T18:12:43.519Z,20.35
2022-12-05T18:15:10.693Z,22.92
2022-12-05T18:17:37.286Z,21.65
2022-12-05T18:20:05.226Z,22.50
2022-12-05T18:22:31.890Z,22.80
2022-12-05T18:24:59.017Z,24.90
2022-12-05T18:27:25.845Z,21.83
2022-12-05T18:29:52.590Z,21.13
2022-12-05T18:32:19.790Z,22.50
2022-12-05T18:34:46.413Z,21.73
2022-12-05T18:37:13.014Z,22.00
2022-12-05T18:39:39.809Z,21.60
2022-12-05T18:42:11.774Z,21.42
2022-12-05T18:44:41.605Z,21.50
2022-12-05T18:47:08.368Z,22.45
2022-12-05T18:49:35.053Z,21.52
2022-12-05T18:52:01.667Z,20.13
2022-12-05T18:54:28.269Z,20.73
2022-12-05T18:56:54.804Z,22.30
2022-12-05T18:59:22.364Z,21.45
2022-12-05T19:01:50.002Z,20.63
2022-12-05T19:04:19.147Z,22.05
2022-12-05T19:06:53.680Z,21.63
2022-12-05T19:09:22.120Z,21.52
2022-12-05T19:11:51.191Z,19.42
2022-12-05T19:14:19.307Z,20.20
2022-12-05T19:16:48.132Z,21.50
2022-12-05T19:19:15.110Z,19.58
2022-12-05T19:21:42.260Z,19.13
2022-12-05T19:24:12.252Z,20.45
2022-12-05T19:26:39.145Z,18.38
2022-12-05T19:29:08.364Z,19.10
2022-12-05T19:31:38.043Z,19.60
2022-12-05T19:34:05.958Z,19.63
2022-12-05T19:36:40.720Z,19.55
2022-12-05T19:39:30.235Z,18.55
2022-12-05T19:42:00.172Z,19.27
2022-12-05T19:44:27.247Z,19.57
2022-12-05T19:46:55.124Z,18.15
2022-12-05T19:49:23.049Z,19.50
2022-12-05T19:51:49.855Z,19.70
2022-12-05T19:54:21.752Z,21.30
2022-12-05T19:56:48.327Z,20.10
2022-12-05T19:59:16.654Z,20.48
2022-12-05T20:01:44.630Z,19.58
2022-12-05T20:04:13.681Z,20.40
2022-12-05T20:06:45.331Z,19.90
2022-12-05T20:09:13.601Z,20.17
2022-12-05T20:11:41.540Z,20.85
2022-12-05T20:14:10.291Z,19.88
2022-12-05T20:16:37.102Z,20.80
2022-12-05T20:19:04.384Z,20.05
2022-12-05T20:21:32.613Z,21.05
2022-12-05T20:24:00.809Z,21.45
2022-12-05T20:26:39.179Z,20.77
2022-12-05T20:29:06.646Z,21.42
2022-12-05T20:31:38.866Z,23.85
2022-12-05T20:34:06.148Z,21.98
2022-12-05T20:36:34.326Z,22.98
2022-12-05T20:39:10.153Z,20.35
2022-12-05T20:41:36.834Z,20.45
2022-12-05T20:44:05.567Z,21.48
2022-12-05T20:46:32.593Z,20.77
2022-12-05T20:48:59.693Z,22.02
2022-12-05T20:51:31.275Z,22.75
2022-12-05T20:53:59.626Z,21.42
2022-12-05T20:56:28.695Z,20.33
2022-12-05T20:58:57.431Z,21.85
2022-12-05T21:01:25.351Z,24.15
2022-12-05T21:03:53.427Z,21.13
2022-12-05T21:06:25.307Z,22.15
2022-12-05T21:08:52.811Z,20.92
2022-12-05T21:11:19.783Z,20.42
2022-12-05T21:13:46.369Z,20.98
2022-12-05T21:16:18.423Z,20.77
2022-12-05T21:18:45.648Z,19.10
2022-12-05T21:21:14.958Z,19.40
2022-12-05T21:23:42.716Z,19.38
2022-12-05T21:26:12.693Z,19.38
2022-12-05T21:28:39.545Z,19.02
2022-12-05T21:31:07.982Z,18.33
2022-12-05T21:33:35.293Z,19.52
2022-12-05T21:36:01.939Z,19.80
2022-12-05T21:38:28.544Z,21.48
2022-12-05T21:40:55.206Z,18.42
2022-12-05T21:43:21.782Z,19.13
2022-12-05T21:45:53.216Z,18.70
2022-12-05T21:48:21.107Z,18.48
2022-12-05T21:50:47.998Z,18.90
2022-12-05T21:53:15.046Z,18.42
2022-12-05T21:55:43.216Z,17.52
2022-12-05T21:58:12.832Z,18.17
2022-12-05T22:00:39.695Z,17.25
2022-12-05T22:03:07.070Z,17.75
2022-12-05T22:05:33.760Z,17.63
2022-12-05T22:08:04.824Z,17.42
2022-12-05T22:13:07.283Z,15.20
2022-12-05T22:15:33.924Z,16.33
2022-12-05T22:18:00.611Z,15.95
2022-12-05T22:20:27.270Z,16.55
2022-12-05T22:22:53.850Z,15.07
2022-12-05T22:25:20.813Z,16.88
2022-12-05T22:27:47.402Z,14.45
2022-12-05T22:30:14.040Z,17.75
2022-12-05T22:32:40.619Z,14.65
2022-12-05T22:35:07.528Z,15.18
2022-12-05T22:37:34.321Z,14.40
2022-12-05T22:40:01.221Z,15.05
2022-12-05T22:42:28.254Z,15.32
2022-12-05T22:44:54.871Z,15.90
2022-12-05T22:47:21.577Z,15.32
2022-12-05T22:49:48.151Z,15.27
2022-12-05T22:52:18.370Z,15.73
2022-12-05T22:54:44.917Z,14.63
2022-12-05T22:57:11.489Z,15.63
2022-12-05T22:59:38.075Z,15.98
2022-12-05T23:02:04.671Z,17.23
2022-12-05T23:04:31.244Z,16.23
2022-12-05T23:06:57.901Z,16.55
2022-12-05T23:09:24.443Z,16.05
2022-12-05T23:11:51.059Z,17.92
2022-12-05T23:14:17.861Z,15.35
2022-12-05T23:16:45.595Z,16.52
2022-12-05T23:19:12.314Z,16.77
2022-12-05T23:21:40.088Z,18.45
2022-12-05T23:24:09.575Z,17.05
2022-12-05T23:26:45.778Z,18.27
2022-12-05T23:29:13.558Z,17.00
2022-12-05T23:31:41.265Z,18.10
2022-12-05T23:34:08.432Z,17.45
2022-12-05T23:36:35.615Z,18.55
2022-12-05T23:39:02.558Z,19.60
2022-12-05T23:41:29.174Z,18.40
2022-12-05T23:43:56.704Z,18.70
2022-12-05T23:46:25.286Z,18.58
2022-12-05T23:48:51.989Z,17.00
2022-12-05T23:51:20.800Z,18.27
2022-12-05T23:53:48.320Z,17.88
2022-12-05T23:56:19.286Z,17.63
2022-12-05T23:58:46.586Z,20.25
